9MA8 weather

Public forecast

Using degrees Fahrenheit for public forecast. Weather courtesy of forecast.io.

Closest aviation weather report (METAR) to Wayne West Heliport

Closest report is Plymouth Municipal Airport, 4.0 nm (7.4 km) NNE. Retrieved 2020/08/11 09:52 UTC (14 minutes ago):

KPYM 110952Z AUTO 21006KT 10SM OVC007 23/22 A2998 RMK AO2 SLP151 T02330222

Closest aviation forecast (TAF) to Wayne West Heliport

Closest forecast is Cape Cod Coast Guard Air Station, 15.6 nm (28.9 km) SE. Retrieved 2020/08/11 06:22 UTC (4 hours ago):

TAF KFMH 110520Z 1106/1206 23010KT P6SM OVC008 FM110900 22006KT P6SM OVC006 FM111100 22007KT P6SM BKN006 FM111300 22010KT P6SM BKN060